Time;durP1;ratioP1;P1;durP2;ratioP2;P2;SDS_P1;SDS_P2;PMS_P1;PMS_P2;Temp;Humidity;BMP_temperature;BMP_pressure;BME280_temperature;BME280_humidity;BME280_pressure;Samples;Min_cycle;Max_cycle;Signal;HPM_P1;HPM_P2
2022/09/08 00:02:20;;;;;;;0.90;0.60;;;;;;;;;;5095872;28;20031;-75
2022/09/08 00:04:46;;;;;;;1.33;0.50;;;;;;;;;;5095848;28;20081;-75
2022/09/08 00:07:13;;;;;;;4.83;0.93;;;;;;;;;;5096068;28;20086;-75
2022/09/08 00:09:40;;;;;;;1.43;1.00;;;;;;;;;;5093214;28;20032;-75
2022/09/08 00:12:06;;;;;;;2.27;0.87;;;;;;;;;;5089923;28;20028;-75
2022/09/08 00:14:33;;;;;;;0.93;0.47;;;;;;;;;;5090083;28;20048;-76
2022/09/08 00:17:00;;;;;;;4.27;1.27;;;;;;;;;;5090405;28;20375;-76
2022/09/08 00:19:27;;;;;;;4.23;0.93;;;;;;;;;;5092293;28;20584;-76
2022/09/08 00:21:54;;;;;;;1.00;0.57;;;;;;;;;;5094850;28;20374;-76
2022/09/08 00:24:20;;;;;;;1.10;0.77;;;;;;;;;;5095553;28;20103;-76
2022/09/08 00:26:47;;;;;;;1.23;0.73;;;;;;;;;;5095198;28;20028;-76
2022/09/08 00:29:14;;;;;;;2.10;1.00;;;;;;;;;;5094615;28;20032;-76
2022/09/08 00:31:42;;;;;;;5.50;0.77;;;;;;;;;;5093219;28;20031;-75
2022/09/08 00:34:09;;;;;;;1.70;1.10;;;;;;;;;;5089354;28;20467;-76
2022/09/08 00:36:35;;;;;;;2.67;1.13;;;;;;;;;;5089844;28;20063;-76
2022/09/08 00:39:02;;;;;;;2.30;1.07;;;;;;;;;;5090107;28;20044;-76
2022/09/08 00:41:29;;;;;;;1.00;0.60;;;;;;;;;;5090620;28;20024;-76
2022/09/08 00:44:01;;;;;;;1.23;0.70;;;;;;;;;;5094949;28;20024;-76
2022/09/08 00:46:30;;;;;;;0.90;0.57;;;;;;;;;;5095442;28;20032;-76
2022/09/08 00:49:16;;;;;;;1.13;0.67;;;;;;;;;;5094304;28;20471;-76
2022/09/08 00:51:48;;;;;;;0.67;0.50;;;;;;;;;;5094751;28;20035;-76
2022/09/08 00:54:16;;;;;;;0.37;0.37;;;;;;;;;;5092901;28;20103;-75
2022/09/08 00:56:44;;;;;;;2.17;1.03;;;;;;;;;;5088659;28;20027;-76
2022/09/08 00:59:11;;;;;;;1.83;1.13;;;;;;;;;;5087823;28;20040;-75
2022/09/08 01:01:41;;;;;;;1.63;1.13;;;;;;;;;;5085950;28;20073;-75
2022/09/08 01:04:09;;;;;;;4.77;2.60;;;;;;;;;;5089593;28;20036;-75
2022/09/08 01:12:46;;;;;;;4.90;1.80;;;;;;;;;;5094259;28;20081;-75
2022/09/08 01:15:18;;;;;;;6.07;2.07;;;;;;;;;;5092988;28;20028;-75
2022/09/08 01:17:47;;;;;;;1.00;0.90;;;;;;;;;;5089351;28;20035;-75
2022/09/08 01:20:15;;;;;;;2.57;1.17;;;;;;;;;;5089273;28;20412;-75
2022/09/08 01:22:42;;;;;;;3.53;1.23;;;;;;;;;;5088016;28;20024;-75
2022/09/08 01:25:12;;;;;;;1.60;1.10;;;;;;;;;;5087856;28;20027;-75
2022/09/08 01:27:39;;;;;;;5.20;1.77;;;;;;;;;;5092254;28;20021;-74
2022/09/08 01:30:08;;;;;;;0.83;0.70;;;;;;;;;;5093791;28;20032;-75
2022/09/08 01:32:36;;;;;;;3.47;0.93;;;;;;;;;;5094413;28;20030;-74
2022/09/08 01:35:03;;;;;;;1.20;0.80;;;;;;;;;;5093918;28;20047;-75
2022/09/08 01:37:30;;;;;;;1.50;0.80;;;;;;;;;;5094212;28;20031;-75
2022/09/08 01:39:57;;;;;;;6.07;0.90;;;;;;;;;;5090275;28;20031;-76
2022/09/08 01:42:24;;;;;;;0.93;0.70;;;;;;;;;;5088588;28;20066;-76
2022/09/08 01:44:51;;;;;;;6.80;1.27;;;;;;;;;;5087995;28;20098;-75
2022/09/08 01:47:17;;;;;;;2.43;1.60;;;;;;;;;;5088849;28;20034;-75
2022/09/08 01:49:44;;;;;;;1.07;0.80;;;;;;;;;;5091322;28;20063;-74
2022/09/08 01:52:11;;;;;;;2.03;1.30;;;;;;;;;;5094070;28;20024;-76
2022/09/08 01:54:37;;;;;;;1.73;0.97;;;;;;;;;;5093503;28;20490;-75
2022/09/08 01:57:04;;;;;;;1.90;1.00;;;;;;;;;;5093526;28;20024;-76
2022/09/08 01:59:31;;;;;;;2.10;1.20;;;;;;;;;;5092977;28;20028;-77
2022/09/08 02:01:58;;;;;;;1.50;0.90;;;;;;;;;;5091180;28;20031;-75
2022/09/08 02:04:25;;;;;;;1.43;1.03;;;;;;;;;;5088225;28;20085;-74
2022/09/08 02:06:52;;;;;;;1.13;0.80;;;;;;;;;;5088184;28;20099;-75
2022/09/08 02:09:18;;;;;;;2.73;1.03;;;;;;;;;;5088101;28;20020;-76
2022/09/08 02:11:48;;;;;;;5.60;1.40;;;;;;;;;;5089918;28;20017;-76
2022/09/08 02:14:15;;;;;;;1.10;0.70;;;;;;;;;;5093217;28;20059;-75
2022/09/08 02:16:42;;;;;;;3.60;0.93;;;;;;;;;;5093310;28;20020;-75
2022/09/08 02:19:09;;;;;;;1.90;0.83;;;;;;;;;;5093066;28;20028;-75
2022/09/08 02:21:35;;;;;;;9.33;1.00;;;;;;;;;;5093087;28;20047;-75
2022/09/08 02:24:03;;;;;;;0.80;0.60;;;;;;;;;;5091140;28;20020;-74
2022/09/08 02:26:30;;;;;;;0.87;0.67;;;;;;;;;;5088014;28;20462;-74
2022/09/08 02:28:57;;;;;;;2.17;1.37;;;;;;;;;;5087651;28;20056;-75
2022/09/08 02:31:25;;;;;;;2.30;0.73;;;;;;;;;;5087790;28;20031;-75
2022/09/08 02:33:52;;;;;;;0.47;0.33;;;;;;;;;;5088648;28;20028;-76
2022/09/08 02:36:19;;;;;;;0.63;0.57;;;;;;;;;;5092661;28;20053;-75
2022/09/08 02:38:50;;;;;;;0.73;0.63;;;;;;;;;;5092652;28;20032;-75
2022/09/08 02:41:17;;;;;;;8.57;0.80;;;;;;;;;;5092727;28;20024;-75
2022/09/08 02:43:44;;;;;;;1.73;0.97;;;;;;;;;;5093137;28;20105;-76
2022/09/08 02:46:11;;;;;;;1.30;0.90;;;;;;;;;;5091620;28;20025;-75
2022/09/08 02:48:38;;;;;;;1.17;0.80;;;;;;;;;;5087630;28;20386;-75
2022/09/08 02:51:06;;;;;;;0.33;0.20;;;;;;;;;;5086597;28;20025;-76
2022/09/08 02:53:33;;;;;;;1.33;0.93;;;;;;;;;;5087214;28;20024;-77
2022/09/08 02:56:01;;;;;;;1.33;0.57;;;;;;;;;;5087894;28;20484;-76
2022/09/08 02:58:27;;;;;;;1.43;0.90;;;;;;;;;;5092755;28;20280;-76
2022/09/08 03:00:54;;;;;;;0.57;0.57;;;;;;;;;;5092102;28;20024;-76
2022/09/08 03:03:22;;;;;;;0.97;0.80;;;;;;;;;;5092712;28;20031;-76
2022/09/08 03:05:49;;;;;;;0.40;0.40;;;;;;;;;;5092575;28;20336;-76
2022/09/08 03:08:16;;;;;;;1.33;0.77;;;;;;;;;;5092119;28;20055;-76
2022/09/08 03:10:43;;;;;;;1.67;0.77;;;;;;;;;;5086834;28;20031;-75
2022/09/08 03:13:10;;;;;;;0.90;0.63;;;;;;;;;;5087360;28;20122;-77
2022/09/08 03:15:37;;;;;;;2.63;1.10;;;;;;;;;;5087603;28;20453;-76
2022/09/08 03:18:04;;;;;;;1.33;0.83;;;;;;;;;;5087188;28;20473;-76
2022/09/08 03:20:32;;;;;;;1.17;1.00;;;;;;;;;;5091636;28;20040;-76
2022/09/08 03:22:59;;;;;;;1.20;0.90;;;;;;;;;;5092567;28;20089;-76
2022/09/08 03:25:25;;;;;;;0.70;0.63;;;;;;;;;;5092103;28;20103;-75
2022/09/08 03:27:52;;;;;;;1.10;0.80;;;;;;;;;;5092405;28;20024;-75
2022/09/08 03:30:19;;;;;;;1.83;0.57;;;;;;;;;;5091942;28;20051;-75
2022/09/08 03:32:46;;;;;;;2.00;1.33;;;;;;;;;;5087462;28;20020;-75
2022/09/08 03:35:14;;;;;;;1.20;0.70;;;;;;;;;;5087170;28;20103;-75
2022/09/08 03:37:41;;;;;;;1.37;0.73;;;;;;;;;;5087206;28;20473;-75
2022/09/08 03:40:10;;;;;;;2.20;1.00;;;;;;;;;;5087028;28;20080;-75
2022/09/08 03:42:37;;;;;;;1.17;0.77;;;;;;;;;;5090339;28;20032;-76
2022/09/08 03:45:05;;;;;;;2.30;1.20;;;;;;;;;;5092098;28;20012;-75
2022/09/08 03:47:32;;;;;;;1.47;1.10;;;;;;;;;;5092058;28;20017;-75
2022/09/08 03:49:59;;;;;;;1.13;0.90;;;;;;;;;;5091920;28;20052;-75
2022/09/08 03:52:26;;;;;;;1.00;0.60;;;;;;;;;;5091336;28;20039;-75
2022/09/08 03:54:53;;;;;;;0.93;0.77;;;;;;;;;;5088265;28;20028;-75
2022/09/08 03:57:21;;;;;;;1.77;1.00;;;;;;;;;;5086611;28;20078;-75
2022/09/08 03:59:52;;;;;;;1.07;0.77;;;;;;;;;;5086761;28;20027;-76
2022/09/08 04:02:19;;;;;;;1.13;0.83;;;;;;;;;;5086657;28;20024;-76
2022/09/08 04:04:53;;;;;;;1.23;0.70;;;;;;;;;;5090010;28;20024;-77
2022/09/08 04:07:21;;;;;;;0.85;0.75;;;;;;;;;;5091823;28;20024;-76
2022/09/08 04:09:48;;;;;;;0.83;0.60;;;;;;;;;;5092208;28;20086;-77
2022/09/08 04:12:15;;;;;;;0.73;0.57;;;;;;;;;;5091619;28;20054;-76
2022/09/08 04:14:42;;;;;;;1.50;0.83;;;;;;;;;;5092106;28;20028;-76
2022/09/08 04:17:10;;;;;;;1.43;0.87;;;;;;;;;;5088237;28;20024;-76
2022/09/08 04:19:36;;;;;;;2.17;0.83;;;;;;;;;;5086341;28;20528;-77
2022/09/08 04:22:03;;;;;;;1.27;0.93;;;;;;;;;;5086421;28;20078;-76
2022/09/08 04:24:31;;;;;;;0.67;0.60;;;;;;;;;;5086582;28;20032;-76
2022/09/08 04:26:58;;;;;;;6.03;1.10;;;;;;;;;;5088891;28;20028;-76
2022/09/08 04:29:24;;;;;;;1.13;0.83;;;;;;;;;;5091514;28;20031;-76
2022/09/08 04:31:51;;;;;;;2.70;1.50;;;;;;;;;;5091911;28;20035;-76
2022/09/08 04:34:18;;;;;;;1.87;0.70;;;;;;;;;;5091619;28;20028;-74
2022/09/08 04:36:45;;;;;;;0.70;0.53;;;;;;;;;;5094391;28;20539;-75
2022/09/08 04:39:12;;;;;;;0.73;0.63;;;;;;;;;;5092734;28;20032;-80
2022/09/08 04:41:39;;;;;;;0.97;0.67;;;;;;;;;;5090502;28;20031;-76
2022/09/08 04:44:06;;;;;;;9.93;1.17;;;;;;;;;;5089974;28;20466;-78
2022/09/08 04:46:34;;;;;;;0.90;0.60;;;;;;;;;;5090726;28;20028;-78
2022/09/08 04:49:01;;;;;;;2.37;0.87;;;;;;;;;;5092326;28;20024;-78
2022/09/08 04:51:28;;;;;;;4.40;0.73;;;;;;;;;;5094361;28;20043;-77
2022/09/08 04:53:56;;;;;;;0.63;0.37;;;;;;;;;;5095014;28;20100;-77
2022/09/08 04:56:25;;;;;;;1.33;0.90;;;;;;;;;;5095373;28;20026;-76
2022/09/08 04:58:52;;;;;;;1.97;0.80;;;;;;;;;;5095029;28;20028;-75
2022/09/08 05:01:23;;;;;;;1.27;0.70;;;;;;;;;;5092801;28;20103;-74
2022/09/08 05:03:55;;;;;;;1.20;0.57;;;;;;;;;;5089912;28;20126;-75
2022/09/08 05:06:22;;;;;;;1.07;0.53;;;;;;;;;;5089920;28;20027;-74
2022/09/08 05:08:50;;;;;;;0.53;0.30;;;;;;;;;;5089839;28;20050;-74
2022/09/08 05:11:17;;;;;;;0.37;0.33;;;;;;;;;;5090945;28;20024;-73
2022/09/08 05:13:44;;;;;;;1.27;0.40;;;;;;;;;;5094932;28;20733;-75
2022/09/08 05:16:15;;;;;;;1.33;0.53;;;;;;;;;;5094634;28;20024;-75
2022/09/08 05:18:42;;;;;;;1.43;0.83;;;;;;;;;;5094326;28;20136;-74
2022/09/08 05:21:24;;;;;;;0.50;0.37;;;;;;;;;;5094003;28;20028;-78
2022/09/08 05:24:00;;;;;;;1.00;0.47;;;;;;;;;;5091554;28;20028;-80
2022/09/08 05:26:39;;;;;;;1.97;0.83;;;;;;;;;;5089463;28;20031;-75
2022/09/08 05:29:29;;;;;;;0.50;0.37;;;;;;;;;;5088913;28;20031;-76
2022/09/08 05:31:56;;;;;;;1.17;0.70;;;;;;;;;;5068735;28;20045;-78
2022/09/08 05:34:22;;;;;;;0.50;0.43;;;;;;;;;;5071939;28;20021;-78
2022/09/08 05:36:49;;;;;;;0.60;0.33;;;;;;;;;;5074161;28;20471;-78
2022/09/08 05:39:16;;;;;;;4.00;0.83;;;;;;;;;;5075146;28;20037;-78
2022/09/08 05:41:43;;;;;;;0.47;0.47;;;;;;;;;;5093203;28;20024;-78
2022/09/08 05:44:13;;;;;;;3.10;0.63;;;;;;;;;;5094127;28;20039;-78
2022/09/08 05:46:40;;;;;;;2.80;1.10;;;;;;;;;;5090343;28;20089;-78
2022/09/08 05:49:07;;;;;;;1.83;1.03;;;;;;;;;;5087872;28;20469;-77
2022/09/08 05:51:33;;;;;;;1.77;0.50;;;;;;;;;;5088228;28;20075;-77
2022/09/08 05:54:01;;;;;;;3.20;0.90;;;;;;;;;;5088537;28;20027;-77
2022/09/08 05:56:28;;;;;;;1.07;0.53;;;;;;;;;;5090863;28;20028;-77
2022/09/08 05:58:57;;;;;;;0.30;0.30;;;;;;;;;;5093744;28;20032;-77
2022/09/08 06:01:24;;;;;;;1.97;0.67;;;;;;;;;;5093466;28;20024;-77
2022/09/08 06:03:51;;;;;;;1.23;0.63;;;;;;;;;;5093945;28;20455;-77
2022/09/08 06:06:18;;;;;;;2.73;0.90;;;;;;;;;;5093652;28;20032;-77
2022/09/08 06:08:45;;;;;;;0.67;0.57;;;;;;;;;;5090876;28;20490;-77
2022/09/08 06:11:12;;;;;;;0.60;0.50;;;;;;;;;;5087990;28;20032;-77
2022/09/08 06:13:39;;;;;;;1.67;0.93;;;;;;;;;;5088127;28;20020;-77
2022/09/08 06:16:07;;;;;;;2.07;0.90;;;;;;;;;;5088217;28;20111;-77
2022/09/08 06:18:34;;;;;;;1.00;0.53;;;;;;;;;;5090140;28;20386;-77
2022/09/08 06:21:08;;;;;;;1.13;0.63;;;;;;;;;;5093172;28;20028;-77
2022/09/08 06:23:36;;;;;;;4.40;1.05;;;;;;;;;;5093209;28;20038;-77
2022/09/08 06:26:21;;;;;;;2.13;1.03;;;;;;;;;;5093373;28;20474;-77
2022/09/08 06:28:53;;;;;;;1.05;0.75;;;;;;;;;;5093366;28;20020;-77
2022/09/08 06:31:26;;;;;;;0.30;0.30;;;;;;;;;;5089236;28;20020;-78
2022/09/08 06:33:53;;;;;;;1.93;0.60;;;;;;;;;;5087879;28;20022;-78
2022/09/08 06:36:33;;;;;;;1.83;1.17;;;;;;;;;;5087812;28;20024;-77
2022/09/08 06:39:03;;;;;;;0.33;0.30;;;;;;;;;;5087790;28;20811;-77
2022/09/08 06:41:31;;;;;;;1.53;0.37;;;;;;;;;;5090497;28;20115;-77
2022/09/08 06:44:06;;;;;;;1.50;0.70;;;;;;;;;;5092839;28;20028;-78
2022/09/08 06:46:32;;;;;;;;;;;;;;;;;;5093459;28;20097;-78
2022/09/08 06:48:59;;;;;;;1.73;0.80;;;;;;;;;;5092981;28;20354;-78
2022/09/08 06:51:33;;;;;;;0.93;0.50;;;;;;;;;;5092383;28;20095;-77
2022/09/08 06:54:18;;;;;;;9.47;1.13;;;;;;;;;;5088772;28;20505;-77
2022/09/08 06:56:51;;;;;;;2.25;0.90;;;;;;;;;;5087580;28;20362;-78
2022/09/08 06:59:36;;;;;;;3.73;0.83;;;;;;;;;;5087076;28;20032;-77
2022/09/08 07:02:11;;;;;;;0.75;0.55;;;;;;;;;;5087408;28;20020;-77
2022/09/08 07:04:37;;;;;;;0.57;0.57;;;;;;;;;;5092441;28;20016;-77
2022/09/08 07:07:12;;;;;;;0.70;0.60;;;;;;;;;;5092258;28;20134;-78
2022/09/08 07:09:57;;;;;;;1.60;1.17;;;;;;;;;;5092786;28;20019;-78
2022/09/08 07:12:29;;;;;;;4.65;0.75;;;;;;;;;;5092642;28;20020;-77
2022/09/08 07:14:56;;;;;;;0.77;0.57;;;;;;;;;;5091749;28;20023;-78
2022/09/08 07:17:22;;;;;;;1.77;0.50;;;;;;;;;;5086845;28;20409;-77
2022/09/08 07:19:51;;;;;;;1.50;0.57;;;;;;;;;;5087095;28;20035;-77
2022/09/08 07:22:17;;;;;;;2.73;1.10;;;;;;;;;;5087005;28;20023;-77
2022/09/08 07:24:45;;;;;;;3.17;1.57;;;;;;;;;;5086916;28;20035;-77
2022/09/08 07:27:13;;;;;;;2.03;1.13;;;;;;;;;;5091348;28;20408;-77
2022/09/08 07:29:51;;;;;;;1.60;0.93;;;;;;;;;;5091462;28;20112;-78
2022/09/08 07:32:32;;;;;;;1.27;0.80;;;;;;;;;;5092488;28;20105;-78
2022/09/08 07:35:22;;;;;;;1.40;0.90;;;;;;;;;;5092331;28;20024;-77
2022/09/08 07:37:51;;;;;;;4.63;1.03;;;;;;;;;;5090053;28;20059;-76
2022/09/08 07:40:40;;;;;;;0.70;0.30;;;;;;;;;;5086907;28;20437;-78
2022/09/08 07:43:14;;;;;;;1.43;0.77;;;;;;;;;;5086449;28;20054;-77
2022/09/08 07:45:53;;;;;;;1.10;0.60;;;;;;;;;;5086516;28;20028;-77
2022/09/08 07:48:40;;;;;;;0.30;0.30;;;;;;;;;;5089658;28;20408;-77
2022/09/08 07:51:11;;;;;;;0.63;0.60;;;;;;;;;;5092071;28;20111;-77
2022/09/08 07:53:56;;;;;;;2.93;0.90;;;;;;;;;;5091591;28;20024;-78
2022/09/08 07:56:22;;;;;;;3.58;0.82;;;;;;;;;;5092190;28;20418;-78
2022/09/08 07:59:06;;;;;;;2.47;0.87;;;;;;;;;;5091996;28;20039;-77
2022/09/08 08:01:51;;;;;;;1.17;0.87;;;;;;;;;;5086561;28;20036;-78
2022/09/08 08:04:25;;;;;;;1.23;0.70;;;;;;;;;;5086819;28;20051;-78
2022/09/08 08:06:53;;;;;;;1.77;1.30;;;;;;;;;;5086393;28;20027;-77
2022/09/08 08:09:28;;;;;;;2.60;0.80;;;;;;;;;;5086766;28;20024;-78
2022/09/08 08:12:02;;;;;;;1.93;0.87;;;;;;;;;;5094541;28;20020;-78
2022/09/08 08:14:46;;;;;;;1.40;0.70;;;;;;;;;;5096029;28;20025;-77
2022/09/08 08:17:31;;;;;;;0.90;0.70;;;;;;;;;;5095338;28;20267;-77
2022/09/08 08:20:01;;;;;;;1.33;0.82;;;;;;;;;;5095824;28;20111;-76
2022/09/08 08:22:30;;;;;;;3.67;1.10;;;;;;;;;;5093388;28;20040;-78
2022/09/08 08:25:02;;;;;;;1.03;0.70;;;;;;;;;;5090480;28;20050;-76
2022/09/08 08:27:28;;;;;;;0.23;0.23;;;;;;;;;;5090181;28;20031;-78
2022/09/08 08:29:58;;;;;;;1.77;0.50;;;;;;;;;;5090058;28;20031;-78
2022/09/08 08:32:27;;;;;;;1.10;0.80;;;;;;;;;;5091587;28;20026;-77
2022/09/08 08:35:26;;;;;;;0.87;0.57;;;;;;;;;;5095644;28;20054;-76
2022/09/08 08:37:53;;;;;;;0.40;0.40;;;;;;;;;;5072585;28;20609;-76
2022/09/08 08:40:36;;;;;;;2.47;1.00;;;;;;;;;;5095097;28;20090;-76
2022/09/08 08:43:21;;;;;;;2.07;0.93;;;;;;;;;;5095527;28;20487;-76
2022/09/08 08:46:08;;;;;;;1.30;0.68;;;;;;;;;;5090877;28;20434;-76
2022/09/08 08:48:53;;;;;;;0.60;0.47;;;;;;;;;;5089830;28;20064;-76
2022/09/08 08:51:19;;;;;;;1.13;0.70;;;;;;;;;;5089306;28;20474;-76
2022/09/08 08:54:04;;;;;;;0.70;0.60;;;;;;;;;;5089417;28;20038;-76
2022/09/08 08:56:38;;;;;;;3.65;1.17;;;;;;;;;;5094866;28;20036;-77
2022/09/08 08:59:11;;;;;;;0.83;0.53;;;;;;;;;;5094877;28;20028;-78
2022/09/08 09:01:47;;;;;;;4.07;1.60;;;;;;;;;;5095189;28;20088;-78
2022/09/08 09:04:39;;;;;;;0.93;0.50;;;;;;;;;;5094422;28;20034;-77
2022/09/08 09:07:10;;;;;;;0.63;0.53;;;;;;;;;;5061511;28;20028;-77
2022/09/08 09:09:50;;;;;;;3.63;0.67;;;;;;;;;;5089551;28;20066;-78
2022/09/08 09:12:25;;;;;;;1.90;0.60;;;;;;;;;;5089068;28;20094;-77
2022/09/08 09:14:55;;;;;;;0.77;0.60;;;;;;;;;;5089192;28;20085;-77
2022/09/08 09:17:36;;;;;;;0.63;0.43;;;;;;;;;;5091956;28;20111;-77
2022/09/08 09:20:15;;;;;;;0.60;0.50;;;;;;;;;;5094650;28;20038;-78
2022/09/08 09:22:42;;;;;;;0.43;0.40;;;;;;;;;;5094243;28;20020;-78
2022/09/08 09:25:30;;;;;;;0.30;0.20;;;;;;;;;;5094158;28;20020;-78
2022/09/08 09:28:15;;;;;;;0.33;0.33;;;;;;;;;;5094554;28;20024;-77
2022/09/08 09:30:45;;;;;;;2.38;0.85;;;;;;;;;;5088897;28;20040;-77
2022/09/08 09:33:25;;;;;;;0.57;0.43;;;;;;;;;;5088986;28;20027;-77
2022/09/08 09:36:01;;;;;;;3.77;0.73;;;;;;;;;;5089162;28;20024;-78
2022/09/08 09:38:33;;;;;;;0.83;0.73;;;;;;;;;;5088919;28;20086;-77
2022/09/08 09:41:18;;;;;;;4.67;0.53;;;;;;;;;;5074052;28;20032;-78
2022/09/08 09:44:08;;;;;;;0.10;0.10;;;;;;;;;;5074213;28;20040;-78
2022/09/08 09:46:58;;;;;;;1.33;0.40;;;;;;;;;;5073871;28;20498;-78
2022/09/08 09:49:35;;;;;;;6.23;0.80;;;;;;;;;;5065949;28;20554;-77
2022/09/08 09:52:11;;;;;;;1.20;0.70;;;;;;;;;;5085464;28;20035;-77
2022/09/08 09:54:38;;;;;;;0.97;0.60;;;;;;;;;;5088263;28;20103;-78
2022/09/08 09:57:23;;;;;;;1.13;0.60;;;;;;;;;;5088435;28;20478;-78
2022/09/08 10:00:09;;;;;;;1.77;1.10;;;;;;;;;;5088223;28;20043;-77
2022/09/08 10:02:35;;;;;;;1.02;0.77;;;;;;;;;;5091127;28;20030;-78
2022/09/08 10:05:12;;;;;;;1.57;1.13;;;;;;;;;;5093915;28;20032;-77
2022/09/08 10:07:57;;;;;;;1.60;1.13;;;;;;;;;;5093848;28;20107;-77
2022/09/08 10:10:42;;;;;;;5.32;1.05;;;;;;;;;;5093805;28;20074;-77
2022/09/08 10:13:20;;;;;;;1.63;1.25;;;;;;;;;;5093860;28;20020;-77
2022/09/08 10:15:53;;;;;;;1.37;0.60;;;;;;;;;;5087712;28;20053;-78
2022/09/08 10:18:38;;;;;;;1.63;1.00;;;;;;;;;;5088278;28;20060;-77
2022/09/08 10:21:23;;;;;;;2.28;1.48;;;;;;;;;;5088268;28;20471;-77
2022/09/08 10:23:59;;;;;;;0.88;0.77;;;;;;;;;;5089203;28;20020;-77
2022/09/08 10:26:44;;;;;;;1.80;1.10;;;;;;;;;;5093077;28;20020;-77
2022/09/08 10:29:29;;;;;;;2.55;1.23;;;;;;;;;;5093074;28;20024;-77
2022/09/08 10:32:06;;;;;;;2.45;1.13;;;;;;;;;;5093326;28;20024;-77
2022/09/08 10:34:48;;;;;;;0.50;0.47;;;;;;;;;;5092236;28;20016;-78
2022/09/08 10:37:45;;;;;;;1.83;1.00;;;;;;;;;;5089146;28;20016;-76
2022/09/08 10:40:30;;;;;;;1.13;0.90;;;;;;;;;;5087288;28;20032;-79
2022/09/08 10:43:16;;;;;;;1.10;0.80;;;;;;;;;;5087814;28;20374;-78
2022/09/08 10:46:01;;;;;;;2.30;1.13;;;;;;;;;;5087554;28;20475;-77
2022/09/08 10:48:35;;;;;;;4.05;1.40;;;;;;;;;;5092994;28;20031;-77
2022/09/08 10:51:14;;;;;;;1.25;0.98;;;;;;;;;;5093007;28;20091;-78
2022/09/08 10:53:46;;;;;;;0.77;0.63;;;;;;;;;;5092696;28;20519;-76
2022/09/08 10:56:13;;;;;;;0.93;0.73;;;;;;;;;;5092423;28;20024;-77
2022/09/08 10:59:02;;;;;;;1.10;0.80;;;;;;;;;;5090683;28;20681;-78
2022/09/08 11:01:41;;;;;;;3.93;1.17;;;;;;;;;;5087339;28;20541;-77
2022/09/08 11:04:33;;;;;;;0.10;0.10;;;;;;;;;;5086883;28;20016;-78
2022/09/08 11:07:00;;;;;;;0.73;0.53;;;;;;;;;;5070411;28;20414;-78
2022/09/08 11:09:40;;;;;;;0.67;0.47;;;;;;;;;;5090640;28;20095;-77
2022/09/08 11:12:25;;;;;;;0.40;0.37;;;;;;;;;;5092268;28;20025;-79
2022/09/08 11:14:55;;;;;;;0.30;0.30;;;;;;;;;;5092583;28;20027;-77
2022/09/08 11:17:22;;;;;;;0.20;0.20;;;;;;;;;;5092571;28;20024;-78
2022/09/08 11:19:58;;;;;;;0.90;0.80;;;;;;;;;;5092249;28;20040;-78
2022/09/08 11:22:47;;;;;;;0.77;0.63;;;;;;;;;;5086412;28;20028;-78
2022/09/08 11:25:14;;;;;;;0.40;0.33;;;;;;;;;;5076526;28;20036;-78
2022/09/08 11:27:50;;;;;;;0.90;0.70;;;;;;;;;;5086980;28;20146;-78
2022/09/08 11:30:24;;;;;;;0.23;0.23;;;;;;;;;;5086829;28;20028;-77
2022/09/08 11:32:51;;;;;;;1.13;0.63;;;;;;;;;;5092079;28;20024;-78
2022/09/08 11:35:18;;;;;;;0.10;0.10;;;;;;;;;;5092438;28;20058;-78
2022/09/08 11:37:47;;;;;;;0.63;0.40;;;;;;;;;;5091970;28;20027;-78
2022/09/08 11:40:28;;;;;;;0.47;0.43;;;;;;;;;;5092364;28;20030;-78
2022/09/08 11:43:05;;;;;;;0.30;0.30;;;;;;;;;;5090496;28;20394;-78
2022/09/08 11:45:50;;;;;;;0.40;0.30;;;;;;;;;;5087449;28;20020;-78
2022/09/08 11:48:26;;;;;;;0.55;0.40;;;;;;;;;;5090629;28;20016;-77
2022/09/08 11:51:05;;;;;;;1.10;0.77;;;;;;;;;;5090514;28;20013;-78
2022/09/08 11:53:38;;;;;;;0.60;0.43;;;;;;;;;;5093043;28;20031;-78
2022/09/08 11:56:11;;;;;;;0.20;0.20;;;;;;;;;;5096180;28;20016;-78
2022/09/08 11:58:55;;;;;;;0.47;0.37;;;;;;;;;;5095812;28;20062;-77
2022/09/08 12:01:34;;;;;;;0.60;0.40;;;;;;;;;;5096294;28;20024;-78
2022/09/08 12:04:06;;;;;;;1.03;0.60;;;;;;;;;;5095912;28;20024;-78
2022/09/08 12:06:47;;;;;;;0.67;0.60;;;;;;;;;;5091665;28;20032;-77
2022/09/08 12:09:21;;;;;;;0.30;0.30;;;;;;;;;;5090488;28;20356;-78
2022/09/08 12:12:09;;;;;;;0.83;0.70;;;;;;;;;;5090127;28;20104;-78
2022/09/08 12:14:51;;;;;;;0.83;0.63;;;;;;;;;;5090276;28;20024;-77
2022/09/08 12:17:36;;;;;;;2.23;1.30;;;;;;;;;;5096116;28;20378;-77
2022/09/08 12:20:06;;;;;;;0.98;0.70;;;;;;;;;;5095929;28;20028;-78
2022/09/08 12:22:51;;;;;;;1.03;0.83;;;;;;;;;;5095065;28;20031;-77
2022/09/08 12:25:24;;;;;;;1.15;0.93;;;;;;;;;;5095266;28;20111;-78
2022/09/08 12:28:00;;;;;;;1.57;1.10;;;;;;;;;;5093958;28;20024;-77
2022/09/08 12:30:47;;;;;;;2.77;1.17;;;;;;;;;;5089576;28;20016;-78
2022/09/08 12:33:20;;;;;;;1.70;0.87;;;;;;;;;;5075756;28;20043;-78
2022/09/08 12:36:06;;;;;;;0.80;0.70;;;;;;;;;;5090192;28;20387;-78
2022/09/08 12:38:54;;;;;;;1.23;0.77;;;;;;;;;;5092905;28;20038;-77
2022/09/08 12:41:39;;;;;;;0.77;0.60;;;;;;;;;;5075236;28;20662;-78
2022/09/08 12:44:23;;;;;;;1.25;0.98;;;;;;;;;;5077427;28;20398;-77
2022/09/08 12:46:50;;;;;;;1.45;1.02;;;;;;;;;;5094825;28;20032;-78
2022/09/08 12:49:35;;;;;;;1.10;0.87;;;;;;;;;;5095126;28;20024;-77
2022/09/08 12:52:03;;;;;;;0.70;0.57;;;;;;;;;;5089592;28;20424;-77
2022/09/08 12:54:48;;;;;;;2.37;1.20;;;;;;;;;;5089427;28;20474;-77
2022/09/08 12:57:15;;;;;;;;;;;;;;;;;;5089479;28;20027;-78
2022/09/08 12:59:48;;;;;;;1.53;1.13;;;;;;;;;;5089816;28;19981;-78
2022/09/08 13:02:17;;;;;;;1.23;1.03;;;;;;;;;;5095059;28;20051;-77
2022/09/08 13:04:53;;;;;;;1.70;1.27;;;;;;;;;;5094517;28;20709;-77
2022/09/08 13:07:22;;;;;;;0.93;0.77;;;;;;;;;;5094047;28;20024;-78
2022/09/08 13:09:56;;;;;;;3.20;1.33;;;;;;;;;;5094820;28;20135;-78
2022/09/08 13:12:29;;;;;;;1.63;1.23;;;;;;;;;;5093016;28;20425;-77
2022/09/08 13:14:55;;;;;;;1.53;1.27;;;;;;;;;;5089073;28;20016;-77
2022/09/08 13:17:38;;;;;;;1.77;1.27;;;;;;;;;;5088851;28;20031;-77
2022/09/08 13:20:05;;;;;;;2.67;1.77;;;;;;;;;;5089189;28;20032;-77
2022/09/08 13:22:50;;;;;;;2.30;1.00;;;;;;;;;;5090422;28;20059;-77
2022/09/08 13:25:43;;;;;;;1.85;1.35;;;;;;;;;;5094446;28;20440;-77
2022/09/08 13:28:28;;;;;;;3.13;1.60;;;;;;;;;;5078461;28;20093;-77
2022/09/08 13:31:06;;;;;;;1.40;1.17;;;;;;;;;;5094683;28;20077;-77
2022/09/08 13:33:39;;;;;;;1.63;1.10;;;;;;;;;;5093777;28;20032;-77
2022/09/08 13:36:18;;;;;;;1.67;1.13;;;;;;;;;;5089420;28;20016;-77
2022/09/08 13:39:03;;;;;;;2.53;1.43;;;;;;;;;;5088756;28;20720;-77
2022/09/08 13:41:36;;;;;;;1.45;1.20;;;;;;;;;;5088396;28;20448;-77
2022/09/08 13:44:15;;;;;;;1.23;1.07;;;;;;;;;;5088308;28;20028;-77
2022/09/08 13:46:58;;;;;;;1.43;1.20;;;;;;;;;;5094191;28;20027;-76
2022/09/08 13:49:40;;;;;;;2.37;1.07;;;;;;;;;;5093692;28;20024;-78
2022/09/08 13:52:17;;;;;;;2.37;1.20;;;;;;;;;;5093692;28;20471;-77
2022/09/08 13:54:59;;;;;;;1.00;0.90;;;;;;;;;;5094268;28;20026;-77
2022/09/08 13:57:32;;;;;;;2.33;1.20;;;;;;;;;;5090614;28;20189;-77
2022/09/08 14:00:04;;;;;;;3.47;1.73;;;;;;;;;;5088196;28;20224;-77
2022/09/08 14:02:38;;;;;;;1.37;0.97;;;;;;;;;;5087381;28;20028;-77
2022/09/08 14:05:25;;;;;;;3.05;1.40;;;;;;;;;;5088275;28;20036;-77
2022/09/08 14:08:12;;;;;;;1.77;1.30;;;;;;;;;;5059870;28;20091;-77
2022/09/08 14:10:42;;;;;;;1.07;0.97;;;;;;;;;;5062894;28;20033;-77
2022/09/08 14:13:08;;;;;;;2.17;1.30;;;;;;;;;;5073369;28;20029;-76
2022/09/08 14:15:42;;;;;;;1.50;0.80;;;;;;;;;;5074372;28;20474;-77
2022/09/08 14:18:23;;;;;;;1.23;0.83;;;;;;;;;;5093573;28;20074;-77
2022/09/08 14:20:59;;;;;;;1.13;1.00;;;;;;;;;;5088109;28;20895;-77
2022/09/08 14:23:44;;;;;;;1.23;1.07;;;;;;;;;;5088060;28;20466;-77
2022/09/08 14:26:22;;;;;;;1.17;0.98;;;;;;;;;;5087816;28;20028;-77
2022/09/08 14:29:01;;;;;;;2.40;1.57;;;;;;;;;;5087406;28;20028;-77
2022/09/08 14:31:35;;;;;;;1.33;0.93;;;;;;;;;;5093311;28;20064;-77
2022/09/08 14:34:17;;;;;;;4.07;1.20;;;;;;;;;;5093115;28;20084;-77
2022/09/08 14:36:56;;;;;;;1.13;1.00;;;;;;;;;;5093262;28;20062;-77
2022/09/08 14:39:26;;;;;;;3.10;1.23;;;;;;;;;;5092696;28;20560;-77
2022/09/08 14:41:57;;;;;;;1.60;1.03;;;;;;;;;;5090018;28;20110;-78
2022/09/08 14:44:48;;;;;;;2.10;1.10;;;;;;;;;;5087531;28;20028;-78
2022/09/08 14:47:25;;;;;;;2.83;1.17;;;;;;;;;;5087472;28;20028;-77
2022/09/08 14:49:59;;;;;;;1.90;1.47;;;;;;;;;;5086752;28;20028;-78
2022/09/08 14:52:28;;;;;;;3.97;1.87;;;;;;;;;;5090673;28;20028;-77
2022/09/08 14:55:07;;;;;;;2.60;1.73;;;;;;;;;;5092926;28;20039;-77
2022/09/08 14:57:44;;;;;;;3.53;1.60;;;;;;;;;;5092770;28;20359;-78
2022/09/08 15:00:15;;;;;;;2.97;1.70;;;;;;;;;;5092111;28;20089;-77
2022/09/08 15:03:07;;;;;;;1.77;1.27;;;;;;;;;;5092750;28;20771;-78
2022/09/08 15:05:35;;;;;;;2.17;1.30;;;;;;;;;;5055768;28;20043;-78
2022/09/08 15:08:04;;;;;;;3.67;1.77;;;;;;;;;;5086723;28;20044;-77
2022/09/08 15:10:38;;;;;;;3.37;1.10;;;;;;;;;;5086541;28;20027;-78
2022/09/08 15:13:08;;;;;;;1.40;1.07;;;;;;;;;;5086962;28;20433;-78
2022/09/08 15:15:42;;;;;;;1.23;0.90;;;;;;;;;;5092416;28;20375;-77
2022/09/08 15:18:18;;;;;;;1.07;0.80;;;;;;;;;;5092072;28;20119;-78
2022/09/08 15:20:47;;;;;;;1.60;1.03;;;;;;;;;;5091823;28;20023;-78
2022/09/08 15:23:23;;;;;;;3.17;1.20;;;;;;;;;;5092440;28;20874;-78
2022/09/08 15:26:06;;;;;;;1.20;1.07;;;;;;;;;;5091198;28;20016;-78